Time;durP1;ratioP1;P1;durP2;ratioP2;P2;SDS_P1;SDS_P2;PMS_P1;PMS_P2;Temp;Humidity;BMP_temperature;BMP_pressure;BME280_temperature;BME280_humidity;BME280_pressure;Samples;Min_cycle;Max_cycle;Signal;HPM_P1;HPM_P2
2022/02/01 00:01:41;;;;;;;81.92;33.10;;;;;;;0.16;82.49;99919.18;1768095;80;21002;-71
2022/02/01 00:04:06;;;;;;;101.33;38.67;;;;;;;0.16;82.51;99915.72;1768845;81;21029;-71
2022/02/01 00:09:10;;;;;;;53.20;20.27;;;;;;;0.16;82.55;99920.96;1769608;81;20985;-71
2022/02/01 00:11:38;;;;;;;55.75;20.60;;;;;;;0.14;82.57;99919.75;1765910;80;21053;-71
2022/02/01 00:16:50;;;;;;;47.88;19.42;;;;;;;0.17;82.61;99920.86;1769668;81;21489;-71
2022/02/01 00:37:40;;;;;;;76.10;30.10;;;;;;;0.23;82.84;99940.05;1783197;80;21119;-71
2022/02/01 00:40:11;;;;;;;51.85;17.77;;;;;;;0.24;82.86;99937.80;1736185;81;21512;-71
2022/02/01 00:42:33;;;;;;;45.30;18.45;;;;;;;0.23;82.85;99947.91;1736455;81;21640;-71
2022/02/01 00:44:59;;;;;;;50.17;18.87;;;;;;;0.23;82.88;99949.70;1735776;82;21624;-71
2022/02/01 00:47:25;;;;;;;54.25;18.15;;;;;;;0.25;82.90;99953.02;1735299;82;20966;-71
2022/02/01 00:49:51;;;;;;;50.65;18.87;;;;;;;0.25;82.91;99959.11;1735991;82;22178;-71
2022/02/01 00:52:17;;;;;;;51.92;20.80;;;;;;;0.24;82.93;99961.39;1735825;82;20885;-71
2022/02/01 00:54:43;;;;;;;44.80;19.32;;;;;;;0.27;82.97;99969.02;1735416;82;21045;-71
2022/02/01 00:57:11;;;;;;;53.52;20.80;;;;;;;0.28;82.97;99974.61;1735957;82;21012;-71
2022/02/01 00:59:37;;;;;;;59.70;20.62;;;;;;;0.26;83.01;99980.45;1735614;82;21058;-71
2022/02/01 01:02:04;;;;;;;50.40;21.07;;;;;;;0.27;83.03;99987.85;1735752;82;21343;-71
2022/02/01 01:04:30;;;;;;;51.42;20.57;;;;;;;0.27;83.06;99995.25;1735592;82;20984;-71
2022/02/01 01:06:56;;;;;;;55.28;19.02;;;;;;;0.29;83.05;99998.58;1735505;82;21058;-71
2022/02/01 01:09:22;;;;;;;44.45;17.62;;;;;;;0.28;83.06;99992.96;1735899;82;21048;-71
2022/02/01 01:11:53;;;;;;;54.55;18.50;;;;;;;0.26;83.10;99996.19;1735623;82;21042;-71
2022/02/01 01:17:12;;;;;;;51.85;18.87;;;;;;;0.27;83.10;99996.55;1735599;82;21016;-70
2022/02/01 01:43:59;;;;;;;51.80;17.40;;;;;;;0.17;83.19;100009.99;1732539;82;20971;-71
2022/02/01 01:54:24;;;;;;;46.37;18.32;;;;;;;0.20;83.27;99994.03;1734877;82;21199;-71
2022/02/01 01:56:53;;;;;;;58.20;19.05;;;;;;;0.17;83.29;99991.64;1734857;82;20978;-71
2022/02/01 01:59:18;;;;;;;50.08;18.40;;;;;;;0.15;83.31;99999.23;1734632;82;21008;-71
2022/02/01 02:01:44;;;;;;;46.08;18.25;;;;;;;0.11;83.33;99999.94;1734817;82;20976;-71
2022/02/01 02:04:10;;;;;;;40.85;18.12;;;;;;;0.09;83.33;100004.94;1734565;82;20870;-71
2022/02/01 02:06:38;;;;;;;49.83;18.37;;;;;;;0.06;83.34;100005.17;1734906;82;21156;-71
2022/02/01 02:09:08;;;;;;;58.83;20.57;;;;;;;0.01;83.34;100002.88;1734749;82;21056;-71
2022/02/01 02:14:21;;;;;;;53.42;20.92;;;;;;;-0.03;83.35;99994.88;1734664;82;21518;-71
2022/02/01 02:16:58;;;;;;;37.10;15.05;;;;;;;-0.04;83.40;99997.16;1734646;82;20989;-71
2022/02/01 02:19:27;;;;;;;35.88;15.53;;;;;;;-0.05;83.39;99998.10;1734568;82;21952;-71
2022/02/01 02:22:00;;;;;;;36.93;16.15;;;;;;;-0.05;83.40;99999.41;1734812;82;20974;-71
2022/02/01 02:24:28;;;;;;;44.83;16.02;;;;;;;-0.05;83.43;100003.34;1734680;82;21056;-71
2022/02/01 02:26:56;;;;;;;44.63;14.70;;;;;;;-0.09;83.42;100002.73;1734989;82;21001;-71
2022/02/01 02:29:22;;;;;;;46.45;14.80;;;;;;;-0.12;83.43;100002.12;1734548;82;20985;-70
2022/02/01 02:31:48;;;;;;;41.50;14.53;;;;;;;-0.13;83.47;100007.83;1735106;82;21938;-71
2022/02/01 02:34:15;;;;;;;43.40;13.38;;;;;;;-0.13;83.48;100007.83;1734739;82;20985;-71
2022/02/01 02:36:54;;;;;;;43.48;17.30;;;;;;;-0.12;83.47;100007.36;1735034;82;21063;-71
2022/02/01 02:47:12;;;;;;;45.50;14.83;;;;;;;-0.06;83.54;100006.91;1731958;82;20978;-71
2022/02/01 02:49:38;;;;;;;38.38;14.43;;;;;;;-0.07;83.54;100009.19;1732077;82;20981;-71
2022/02/01 02:52:04;;;;;;;39.85;13.98;;;;;;;-0.07;83.54;100006.56;1731905;82;21055;-71
2022/02/01 02:54:30;;;;;;;44.45;13.90;;;;;;;-0.07;83.53;100006.56;1731949;82;21056;-71
2022/02/01 02:57:00;;;;;;;40.50;13.05;;;;;;;-0.07;83.57;100001.32;1732030;82;21125;-71
2022/02/01 02:59:27;;;;;;;;;;;;;;;-0.07;83.57;100002.63;1734056;82;21471;-71
2022/02/01 03:01:53;;;;;;;42.15;16.00;;;;;;;-0.05;83.60;99999.41;1732118;82;20189;-71
2022/02/01 03:04:23;;;;;;;51.05;16.97;;;;;;;-0.04;83.60;100004.55;1731639;82;21014;-71
2022/02/01 03:06:49;;;;;;;48.25;20.10;;;;;;;-0.01;83.60;100011.34;1732181;82;23859;-71
2022/02/01 03:09:16;;;;;;;47.73;19.25;;;;;;;-0.01;83.63;100015.28;1731778;82;21161;-71
2022/02/01 03:11:42;;;;;;;57.75;24.77;;;;;;;-0.01;83.64;100013.97;1731981;82;20973;-71
2022/02/01 03:19:46;;;;;;;53.13;24.43;;;;;;;-0.02;83.66;100022.77;1686824;79;21097;-71
2022/02/01 03:21:51;;;;;;;66.10;23.55;;;;;;;-0.05;83.71;100005.49;1765857;81;21309;-71
2022/02/01 03:24:17;;;;;;;54.58;21.55;;;;;;;-0.06;83.72;100005.12;1784995;79;20954;-71
2022/02/01 03:26:43;;;;;;;44.88;16.85;;;;;;;-0.05;83.72;100008.11;1784703;80;20903;-71
2022/02/01 03:29:09;;;;;;;44.27;16.25;;;;;;;-0.05;83.75;100004.66;1784766;80;21456;-71
2022/02/01 03:31:35;;;;;;;48.42;15.00;;;;;;;-0.03;83.76;100011.45;1784720;80;20994;-71
2022/02/01 03:34:01;;;;;;;45.73;17.42;;;;;;;-0.01;83.77;100017.42;1784549;80;21162;-71
2022/02/01 03:36:26;;;;;;;47.30;16.00;;;;;;;-0.01;83.79;100004.33;1784542;80;20970;-71
2022/02/01 03:38:53;;;;;;;45.98;17.35;;;;;;;-0.01;83.82;100012.19;1786805;79;21030;-71
2022/02/01 03:41:19;;;;;;;51.13;18.35;;;;;;;0.00;83.85;100005.97;1788348;80;21038;-71
2022/02/01 03:43:45;;;;;;;64.37;25.48;;;;;;;-0.01;83.85;100007.41;1788123;80;20982;-71
2022/02/01 03:46:11;;;;;;;57.88;26.93;;;;;;;-0.02;83.90;100007.05;1788645;80;21878;-71
2022/02/01 03:48:37;;;;;;;73.42;27.62;;;;;;;-0.02;83.91;100005.73;1788148;80;21072;-71
2022/02/01 03:51:03;;;;;;;62.23;25.20;;;;;;;-0.03;83.93;100006.67;1788109;80;21061;-71
2022/02/01 03:53:29;;;;;;;59.33;20.85;;;;;;;-0.04;83.96;100011.11;1788248;80;21659;-71
2022/02/01 03:55:55;;;;;;;48.45;18.05;;;;;;;-0.02;83.96;100008.35;1787803;80;21089;-71
2022/02/01 03:58:21;;;;;;;46.73;16.48;;;;;;;-0.04;83.97;100012.42;1788210;80;21114;-71
2022/02/01 04:00:47;;;;;;;38.47;15.07;;;;;;;-0.06;83.98;99999.04;1788338;80;21637;-71
2022/02/01 04:03:14;;;;;;;43.90;14.70;;;;;;;-0.05;84.01;100004.66;1788277;80;21002;-71
2022/02/01 04:05:40;;;;;;;52.75;16.50;;;;;;;-0.05;84.03;99998.10;1788247;80;21054;-71
2022/02/01 04:08:05;;;;;;;49.77;16.57;;;;;;;-0.07;84.06;100001.32;1788209;80;20915;-71
2022/02/01 04:10:31;;;;;;;51.60;16.40;;;;;;;-0.08;84.09;100004.88;1788290;80;21168;-71
2022/02/01 04:12:58;;;;;;;52.98;15.58;;;;;;;-0.10;84.09;100009.38;1787807;80;21112;-71
2022/02/01 04:15:27;;;;;;;43.35;15.13;;;;;;;-0.11;84.13;100010.35;1788509;80;21006;-71
2022/02/01 04:17:53;;;;;;;49.45;15.90;;;;;;;-0.13;84.14;100007.83;1788034;80;21535;-71
2022/02/01 04:20:19;;;;;;;58.45;21.02;;;;;;;-0.13;84.15;100014.38;1788361;80;21041;-71
2022/02/01 04:22:45;;;;;;;59.00;23.55;;;;;;;-0.13;84.18;100012.23;1788269;80;21613;-71
2022/02/01 04:25:11;;;;;;;53.52;20.57;;;;;;;-0.12;84.19;100012.59;1788225;80;21034;-71
2022/02/01 04:27:38;;;;;;;57.50;23.45;;;;;;;-0.13;84.21;100006.98;1787963;80;20894;-71
2022/02/01 04:30:08;;;;;;;52.08;19.52;;;;;;;-0.12;84.23;100013.91;1788362;80;21006;-70
2022/02/01 04:32:40;;;;;;;60.67;22.40;;;;;;;-0.11;84.24;100023.45;1788481;80;21053;-70
2022/02/01 04:35:09;;;;;;;49.48;18.35;;;;;;;-0.09;84.26;100013.69;1788163;80;21293;-70
2022/02/01 04:37:35;;;;;;;57.58;19.95;;;;;;;-0.11;84.30;100018.22;1788268;80;21025;-70
2022/02/01 04:40:01;;;;;;;61.65;19.00;;;;;;;-0.11;84.32;100020.83;1780267;80;20999;-70
2022/02/01 04:42:31;;;;;;;47.05;16.93;;;;;;;-0.12;84.36;100019.15;1780135;80;21086;-70
2022/02/01 04:44:55;;;;;;;42.15;13.72;;;;;;;-0.13;84.34;100015.69;1780094;80;21012;-70
2022/02/01 04:47:21;;;;;;;41.23;13.68;;;;;;;-0.14;84.37;100015.32;1780225;80;21115;-70
2022/02/01 04:49:48;;;;;;;68.15;27.82;;;;;;;-0.15;84.40;100015.45;1780422;80;20983;-70
2022/02/01 04:52:14;;;;;;;39.33;13.60;;;;;;;-0.17;84.40;100013.39;1780403;80;21010;-70
2022/02/01 04:54:40;;;;;;;39.27;14.10;;;;;;;-0.17;84.43;100013.39;1780281;80;21034;-69
2022/02/01 04:57:06;;;;;;;48.20;19.87;;;;;;;-0.16;84.45;100011.98;1779864;79;21407;-70
2022/02/01 04:59:32;;;;;;;46.88;21.12;;;;;;;-0.15;84.48;100012.36;1780397;80;20980;-69
2022/02/01 05:01:58;;;;;;;37.90;17.82;;;;;;;-0.13;84.51;100014.84;1780054;80;21030;-70
2022/02/01 05:04:24;;;;;;;43.75;17.35;;;;;;;-0.13;84.53;100012.23;1780189;80;21018;-70
2022/02/01 05:06:54;;;;;;;35.30;12.35;;;;;;;-0.13;84.58;100009.61;1780275;80;20856;-70
2022/02/01 05:09:22;;;;;;;34.13;11.88;;;;;;;-0.14;84.60;99999.59;1780314;80;20995;-70
2022/02/01 05:11:50;;;;;;;34.00;12.20;;;;;;;-0.14;84.61;99990.92;1780189;80;21119;-70
2022/02/01 05:14:21;;;;;;;34.88;13.53;;;;;;;-0.13;84.62;99993.89;1780192;80;21026;-70
2022/02/01 05:19:24;;;;;;;25.92;11.53;;;;;;;-0.12;84.67;99999.50;1779895;80;21081;-70
2022/02/01 05:21:43;;;;;;;30.65;11.03;;;;;;;-0.11;84.70;99996.78;1778635;79;21042;-70
2022/02/01 05:24:12;;;;;;;33.78;13.32;;;;;;;-0.10;84.72;99993.66;1780229;80;21126;-70
2022/02/01 05:26:37;;;;;;;32.13;13.30;;;;;;;-0.11;84.74;99998.56;1779968;80;21050;-70
2022/02/01 05:29:03;;;;;;;44.98;16.73;;;;;;;-0.10;84.76;99994.97;1780109;80;21635;-70
2022/02/01 05:31:29;;;;;;;42.62;16.93;;;;;;;-0.09;84.77;99993.56;1779875;80;21042;-70
2022/02/01 05:33:55;;;;;;;59.90;24.57;;;;;;;-0.06;84.79;99999.04;1768254;79;21003;-70
2022/02/01 05:36:21;;;;;;;47.40;22.73;;;;;;;-0.08;84.80;99990.00;1755664;81;21123;-70
2022/02/01 05:38:50;;;;;;;52.17;21.45;;;;;;;-0.08;84.82;99993.09;1779889;80;21472;-70
2022/02/01 05:41:15;;;;;;;57.10;26.27;;;;;;;-0.08;84.85;99994.40;1759795;81;20999;-70
2022/02/01 05:43:44;;;;;;;51.02;25.37;;;;;;;-0.08;84.89;99992.62;1780203;80;21031;-70
2022/02/01 05:46:10;;;;;;;51.50;21.42;;;;;;;-0.08;84.91;99995.23;1760001;81;21085;-70
2022/02/01 05:48:37;;;;;;;57.30;21.33;;;;;;;-0.06;84.92;99995.11;1779817;80;21190;-70
2022/02/01 05:51:03;;;;;;;43.38;19.27;;;;;;;-0.06;84.96;100001.19;1760011;81;21046;-70
2022/02/01 05:53:29;;;;;;;38.25;14.80;;;;;;;-0.03;84.99;99993.57;1779987;80;20902;-70
2022/02/01 05:55:55;;;;;;;37.10;12.93;;;;;;;-0.01;85.02;99999.55;1759546;81;21034;-70
2022/02/01 05:58:21;;;;;;;33.92;12.03;;;;;;;0.01;85.07;100004.19;1780094;80;21001;-70
2022/02/01 06:00:48;;;;;;;34.18;13.45;;;;;;;0.03;85.07;100006.24;1759899;81;21198;-70
2022/02/01 06:03:14;;;;;;;47.35;12.90;;;;;;;0.03;85.11;100015.42;1780198;80;20987;-70
2022/02/01 06:05:40;;;;;;;34.58;11.38;;;;;;;0.03;85.12;100022.44;1759863;81;21539;-70
2022/02/01 06:08:06;;;;;;;37.88;11.28;;;;;;;0.01;85.16;100029.09;1780229;80;21467;-70
2022/02/01 06:10:32;;;;;;;39.98;12.90;;;;;;;0.00;85.19;100031.38;1759912;81;21656;-70
2022/02/01 06:12:58;;;;;;;37.78;15.53;;;;;;;-0.01;85.18;100032.31;1780407;80;22080;-70
2022/02/01 06:15:26;;;;;;;37.45;15.38;;;;;;;0.01;85.21;100030.41;1760041;81;21629;-70
2022/02/01 06:17:53;;;;;;;33.08;13.62;;;;;;;0.02;85.21;100032.09;1780435;80;21002;-70
2022/02/01 06:20:19;;;;;;;29.57;14.55;;;;;;;0.02;85.22;100025.53;1760195;81;20990;-70
2022/02/01 06:22:45;;;;;;;36.88;13.45;;;;;;;0.04;85.25;100024.09;1780385;80;21304;-70
2022/02/01 06:25:12;;;;;;;44.00;20.77;;;;;;;0.03;85.27;100025.91;1760163;81;21164;-70
2022/02/01 06:27:38;;;;;;;34.98;13.55;;;;;;;0.03;85.29;100021.97;1780303;80;21471;-70
2022/02/01 06:30:07;;;;;;;34.38;12.63;;;;;;;0.04;85.30;100032.80;1760192;81;21010;-70
2022/02/01 06:32:39;;;;;;;36.75;13.18;;;;;;;0.02;85.34;100021.60;1780400;80;21479;-70
2022/02/01 06:35:06;;;;;;;40.55;12.20;;;;;;;0.03;85.36;100033.77;1760131;81;21066;-70
2022/02/01 06:37:32;;;;;;;35.33;12.88;;;;;;;0.04;85.38;100031.95;1780430;80;21636;-71
2022/02/01 06:39:58;;;;;;;31.20;11.22;;;;;;;0.04;85.40;100032.80;1734986;80;20975;-70
2022/02/01 06:42:24;;;;;;;36.10;10.58;;;;;;;0.05;85.45;100031.86;1738348;82;21063;-70
2022/02/01 06:44:50;;;;;;;35.05;12.37;;;;;;;0.08;85.46;100035.56;1721599;83;21563;-70
2022/02/01 06:47:16;;;;;;;51.45;18.30;;;;;;;0.09;85.47;100028.06;1734536;82;21010;-70
2022/02/01 06:49:44;;;;;;;48.65;20.70;;;;;;;0.10;85.49;100024.50;1752844;81;21868;-70
2022/02/01 06:52:10;;;;;;;56.58;25.35;;;;;;;0.13;85.56;100026.89;1752863;81;21003;-70
2022/02/01 06:54:36;;;;;;;75.47;32.23;;;;;;;0.13;85.57;100026.89;1753005;81;20908;-70
2022/02/01 06:57:04;;;;;;;68.47;31.62;;;;;;;0.15;85.60;100035.94;1753187;81;21510;-70
2022/02/01 06:59:30;;;;;;;51.13;24.70;;;;;;;0.15;85.62;100043.80;1753194;81;21029;-70
2022/02/01 07:01:56;;;;;;;43.98;23.22;;;;;;;0.15;85.65;100038.09;1753128;81;21102;-70
2022/02/01 07:04:22;;;;;;;37.67;19.60;;;;;;;0.16;85.65;100040.24;1753094;81;20991;-70
2022/02/01 07:06:48;;;;;;;54.53;20.05;;;;;;;0.17;85.70;100041.45;1753285;81;20995;-70
2022/02/01 07:09:15;;;;;;;56.10;21.20;;;;;;;0.18;85.72;100048.34;1753034;81;21035;-70
2022/02/01 07:11:42;;;;;;;62.70;22.73;;;;;;;0.20;85.75;100045.62;1753038;81;21507;-70
2022/02/01 07:14:08;;;;;;;47.10;19.85;;;;;;;0.18;85.77;100053.59;1753052;81;21817;-70
2022/02/01 07:16:35;;;;;;;53.28;22.10;;;;;;;0.18;85.81;100056.69;1752616;81;21476;-70
2022/02/01 07:19:02;;;;;;;58.15;24.63;;;;;;;0.16;85.82;100052.88;1734846;81;21065;-70
2022/02/01 07:21:29;;;;;;;75.03;33.65;;;;;;;0.17;85.86;100051.10;1748100;82;21042;-71
2022/02/01 07:23:55;;;;;;;51.85;23.38;;;;;;;0.17;85.87;100040.14;1746255;80;21007;-70
2022/02/01 07:26:22;;;;;;;51.83;17.57;;;;;;;0.19;85.91;100044.78;1735044;82;21146;-71
2022/02/01 07:28:48;;;;;;;36.63;14.50;;;;;;;0.20;85.93;100045.62;1735003;82;21011;-71
2022/02/01 07:31:14;;;;;;;54.90;17.35;;;;;;;0.22;85.96;100043.25;1741766;81;21078;-70
2022/02/01 07:33:40;;;;;;;34.95;13.65;;;;;;;0.24;85.97;100040.05;1778003;80;21487;-70
2022/02/01 07:36:06;;;;;;;42.55;19.77;;;;;;;0.27;86.02;100036.36;1739608;80;21628;-70
2022/02/01 07:38:32;;;;;;;48.63;20.25;;;;;;;0.28;86.04;100034.92;1732537;82;21095;-70
2022/02/01 07:40:59;;;;;;;48.70;21.00;;;;;;;0.31;86.06;100038.65;1764924;81;21716;-70
2022/02/01 07:43:31;;;;;;;51.83;20.30;;;;;;;0.34;86.10;100030.55;1787934;79;21037;-70
2022/02/01 07:46:04;;;;;;;32.90;12.50;;;;;;;0.36;86.10;100022.55;1760928;80;21393;-70
2022/02/01 07:48:28;;;;;;;46.50;11.75;;;;;;;0.37;86.14;100011.12;1726580;83;21510;-70
2022/02/01 07:50:54;;;;;;;46.08;14.45;;;;;;;0.37;86.16;100016.36;1749494;80;22128;-70
2022/02/01 07:53:20;;;;;;;35.98;11.43;;;;;;;0.37;86.17;100013.27;1762856;80;21025;-71
2022/02/01 07:55:46;;;;;;;42.35;11.00;;;;;;;0.38;86.20;100014.11;1756852;81;20915;-70
2022/02/01 07:58:12;;;;;;;37.23;10.00;;;;;;;0.38;86.19;100005.77;1757133;81;20891;-70
2022/02/01 08:00:38;;;;;;;42.93;11.25;;;;;;;0.39;86.22;99999.55;1784814;80;20934;-70
2022/02/01 08:03:05;;;;;;;28.47;10.30;;;;;;;0.41;86.21;100000.30;1784568;80;21065;-70
2022/02/01 08:05:32;;;;;;;51.05;12.25;;;;;;;0.45;86.25;100000.42;1782451;80;20990;-70
2022/02/01 08:08:00;;;;;;;48.78;18.62;;;;;;;0.48;86.27;99994.95;1785518;79;21005;-71
2022/02/01 08:10:31;;;;;;;78.67;30.23;;;;;;;0.49;86.28;99999.22;1817000;79;20976;-70
2022/02/01 08:20:54;;;;;;;72.05;23.70;;;;;;;0.54;86.33;99986.23;1784436;80;20971;-70
2022/02/01 08:23:15;;;;;;;63.13;24.67;;;;;;;0.56;86.35;99992.22;1779669;80;21031;-70
2022/02/01 08:25:41;;;;;;;71.85;26.52;;;;;;;0.56;86.35;99986.97;1749335;82;20911;-70
2022/02/01 08:28:07;;;;;;;59.75;23.98;;;;;;;0.57;86.36;99992.55;1749158;81;21090;-70
2022/02/01 08:30:33;;;;;;;63.23;26.93;;;;;;;0.59;86.39;99982.33;1751822;81;21050;-70
2022/02/01 08:32:59;;;;;;;74.85;32.23;;;;;;;0.61;86.38;99988.28;1784632;79;21494;-70
2022/02/01 08:35:25;;;;;;;70.03;26.75;;;;;;;0.63;86.39;99982.92;1761366;80;20926;-70
2022/02/01 08:37:51;;;;;;;49.10;22.37;;;;;;;0.63;86.40;99977.68;1779053;80;21023;-71
2022/02/01 08:40:19;;;;;;;47.67;18.45;;;;;;;0.66;86.41;99972.20;1774952;80;21458;-71
2022/02/01 08:42:46;;;;;;;41.53;16.50;;;;;;;0.67;86.39;99966.00;1808551;78;20982;-72
2022/02/01 08:45:14;;;;;;;36.73;12.78;;;;;;;0.68;86.39;99971.59;1751343;79;21020;-71
2022/02/01 08:47:40;;;;;;;32.65;10.70;;;;;;;0.68;86.39;99966.34;1772498;79;21343;-71
2022/02/01 08:50:07;;;;;;;33.40;12.53;;;;;;;0.69;86.41;99964.08;1815282;79;21032;-71
2022/02/01 08:52:46;;;;;;;41.13;15.15;;;;;;;0.67;86.40;99958.94;1792599;78;21138;-71
2022/02/01 08:55:02;;;;;;;32.45;10.88;;;;;;;0.68;86.40;99957.16;1764066;81;21053;-71
2022/02/01 08:57:31;;;;;;;31.23;10.15;;;;;;;0.69;86.42;99964.08;1788608;79;21482;-71
2022/02/01 09:00:01;;;;;;;29.18;10.05;;;;;;;0.65;86.42;99957.39;1790762;79;21478;-71
2022/02/01 09:02:27;;;;;;;24.00;9.08;;;;;;;0.61;86.42;99958.58;1800045;79;21548;-71
2022/02/01 09:04:54;;;;;;;40.12;14.33;;;;;;;0.55;86.42;99958.59;1783887;79;21230;-72
2022/02/01 09:07:20;;;;;;;31.55;12.30;;;;;;;0.48;86.43;99958.22;1787200;79;21007;-72
2022/02/01 09:09:46;;;;;;;36.63;16.50;;;;;;;0.41;86.43;99953.08;1767212;80;20879;-71
2022/02/01 09:12:12;;;;;;;22.67;11.08;;;;;;;0.39;86.43;99947.58;1783435;80;21650;-71
2022/02/01 09:14:38;;;;;;;20.30;8.15;;;;;;;0.38;86.44;99946.77;1785373;79;21562;-71
2022/02/01 09:17:05;;;;;;;20.27;9.48;;;;;;;0.38;86.44;99949.39;1785777;80;21165;-72
2022/02/01 09:19:31;;;;;;;18.90;7.15;;;;;;;0.37;86.43;99946.39;1737529;82;20987;-72
2022/02/01 09:21:57;;;;;;;23.83;8.65;;;;;;;0.38;86.46;99940.20;1769294;80;21525;-71
2022/02/01 09:24:24;;;;;;;15.23;7.67;;;;;;;0.40;86.47;99942.70;1767355;80;20993;-72
2022/02/01 09:26:51;;;;;;;16.80;7.80;;;;;;;0.38;86.50;99934.96;1767425;81;21044;-72
2022/02/01 09:29:19;;;;;;;17.90;9.40;;;;;;;0.38;86.51;99944.61;1767360;81;21129;-72
2022/02/01 09:31:45;;;;;;;18.23;9.10;;;;;;;0.38;86.52;99934.96;1771481;80;21026;-72
2022/02/01 09:34:11;;;;;;;16.32;7.62;;;;;;;0.37;86.51;99935.91;1782179;80;21467;-71
2022/02/01 09:36:37;;;;;;;19.35;8.80;;;;;;;0.35;86.52;99942.23;1780065;78;21542;-71
2022/02/01 09:39:05;;;;;;;19.45;8.45;;;;;;;0.33;86.54;99941.49;1764142;80;21735;-72
2022/02/01 09:41:33;;;;;;;20.27;9.68;;;;;;;0.31;86.53;99940.31;1781680;80;21191;-72
2022/02/01 09:43:59;;;;;;;14.45;6.25;;;;;;;0.30;86.57;99932.08;1781406;80;21486;-72
2022/02/01 09:46:25;;;;;;;21.25;9.93;;;;;;;0.29;86.57;99938.27;1760151;80;21007;-72
2022/02/01 09:48:51;;;;;;;13.10;7.10;;;;;;;0.27;86.58;99940.19;1769164;80;21006;-72
2022/02/01 09:51:18;;;;;;;16.77;7.60;;;;;;;0.27;86.63;99939.34;1765525;81;20905;-72
2022/02/01 09:53:44;;;;;;;15.13;8.03;;;;;;;0.27;86.62;99944.59;1766309;81;21114;-72
2022/02/01 09:59:19;;;;;;;17.02;8.98;;;;;;;0.30;86.68;99931.24;1771721;79;27936;-74
2022/02/01 10:01:46;;;;;;;18.80;10.90;;;;;;;0.31;86.70;99935.55;1763448;80;21082;-74
2022/02/01 10:04:12;;;;;;;42.20;16.12;;;;;;;0.33;86.72;99929.22;1746802;80;21155;-74
2022/02/01 10:06:40;;;;;;;52.48;21.37;;;;;;;0.34;86.75;99930.06;1759831;80;21037;-74
2022/02/01 10:09:14;;;;;;;58.13;27.32;;;;;;;0.32;86.76;99928.02;1759823;81;20975;-74
2022/02/01 10:11:43;;;;;;;48.10;26.00;;;;;;;0.33;86.80;99917.42;1785296;80;20994;-74
2022/02/01 10:14:13;;;;;;;52.93;26.55;;;;;;;0.37;86.84;99928.52;1791342;79;20919;-74
2022/02/01 10:16:49;;;;;;;35.52;19.57;;;;;;;0.43;86.85;99921.48;1790465;79;21084;-74
2022/02/01 10:19:14;;;;;;;37.67;22.45;;;;;;;0.50;86.89;99914.34;1771699;80;21567;-74
2022/02/01 10:21:52;;;;;;;44.00;18.17;;;;;;;0.59;86.92;99914.11;1789318;79;20891;-74
2022/02/01 10:24:37;;;;;;;28.15;12.93;;;;;;;0.67;86.93;99909.59;1746165;81;21013;-74
2022/02/01 10:27:14;;;;;;;26.15;13.55;;;;;;;0.74;86.97;99901.60;1720729;81;21006;-74
2022/02/01 10:30:10;;;;;;;27.48;12.40;;;;;;;0.78;86.99;99897.28;1758051;80;21913;-74
2022/02/01 10:35:25;;;;;;;39.10;16.70;;;;;;;0.88;87.02;99889.55;1722566;83;21073;-73
2022/02/01 10:37:45;;;;;;;30.68;12.37;;;;;;;0.94;87.02;99877.23;1713002;83;21105;-73
2022/02/01 10:40:11;;;;;;;28.32;11.78;;;;;;;1.02;87.05;99872.22;1655325;84;21122;-74
2022/02/01 10:42:38;;;;;;;29.00;12.58;;;;;;;1.11;87.06;99868.01;1697342;84;21114;-73
2022/02/01 10:45:04;;;;;;;28.98;15.03;;;;;;;1.17;87.06;99855.22;1699884;83;21122;-73
2022/02/01 10:47:41;;;;;;;33.48;16.45;;;;;;;1.26;87.06;99854.97;1725660;83;21085;-72
2022/02/01 10:50:14;;;;;;;30.68;13.68;;;;;;;1.28;87.07;99852.56;1715338;83;21063;-72
2022/02/01 10:52:46;;;;;;;37.28;17.27;;;;;;;1.28;87.06;99845.99;1715846;83;21473;-72
2022/02/01 10:55:13;;;;;;;27.65;12.95;;;;;;;1.30;87.06;99848.00;1725728;82;21192;-72
2022/02/01 10:57:39;;;;;;;37.70;20.10;;;;;;;1.33;87.04;99847.78;1753836;81;20947;-72
2022/02/01 11:00:08;;;;;;;29.42;15.30;;;;;;;1.37;87.04;99836.04;1722384;81;21091;-72
2022/02/01 11:02:42;;;;;;;32.42;14.93;;;;;;;1.45;87.04;99833.63;1715793;82;21206;-72
2022/02/01 11:05:09;;;;;;;27.48;12.85;;;;;;;1.53;87.05;99836.10;1715427;83;21027;-72
2022/02/01 11:07:35;;;;;;;30.65;11.05;;;;;;;1.57;87.03;99839.67;1715431;83;21159;-72
2022/02/01 11:10:01;;;;;;;35.58;13.35;;;;;;;1.62;87.03;99828.80;1715255;82;21468;-72
2022/02/01 11:12:33;;;;;;;33.98;14.43;;;;;;;1.69;87.03;99827.33;1715094;82;21019;-72
2022/02/01 11:14:59;;;;;;;23.27;10.70;;;;;;;1.82;87.03;99821.39;1715070;83;21027;-72
2022/02/01 11:17:26;;;;;;;31.30;13.28;;;;;;;1.89;87.02;99814.66;1716789;82;21544;-73
2022/02/01 11:19:57;;;;;;;35.65;14.38;;;;;;;1.93;87.00;99808.17;1719181;82;21923;-72
2022/02/01 11:22:35;;;;;;;36.65;13.95;;;;;;;1.95;86.95;99811.50;1737190;81;21039;-72
2022/02/01 11:25:02;;;;;;;38.78;15.80;;;;;;;1.96;86.93;99809.23;1724194;82;21058;-73
2022/02/01 11:30:43;;;;;;;44.83;20.37;;;;;;;2.03;86.91;99810.37;1733674;82;21019;-72
2022/02/01 11:33:12;;;;;;;46.63;21.97;;;;;;;2.04;86.88;99804.16;1715461;83;21175;-72
2022/02/01 11:35:39;;;;;;;44.45;22.20;;;;;;;2.08;86.87;99801.59;1731879;82;21066;-72
2022/02/01 11:38:15;;;;;;;37.93;14.87;;;;;;;2.06;86.83;99799.59;1721714;82;21071;-72
2022/02/01 11:40:48;;;;;;;28.45;13.05;;;;;;;2.09;86.80;99792.75;1730308;82;21120;-72
2022/02/01 11:43:17;;;;;;;23.35;9.33;;;;;;;2.08;86.75;99789.77;1715005;83;21072;-72
2022/02/01 11:45:54;;;;;;;29.67;10.85;;;;;;;2.05;86.71;99776.88;1714407;83;21898;-72
2022/02/01 11:48:25;;;;;;;31.77;13.15;;;;;;;2.02;86.66;99773.20;1715026;83;21013;-71
2022/02/01 11:50:56;;;;;;;31.90;11.80;;;;;;;2.01;86.61;99778.09;1718911;82;21101;-71
2022/02/01 11:53:36;;;;;;;34.00;11.95;;;;;;;1.98;86.58;99773.11;1729878;83;21027;-72
2022/02/01 11:56:04;;;;;;;35.75;12.80;;;;;;;1.96;86.53;99771.10;1730256;83;21065;-72
2022/02/01 11:58:41;;;;;;;38.02;14.58;;;;;;;1.95;86.50;99760.23;1729727;83;21377;-73
2022/02/01 12:01:31;;;;;;;30.25;14.45;;;;;;;1.93;86.45;99760.85;1698745;84;21009;-72
2022/02/01 12:04:18;;;;;;;34.55;13.90;;;;;;;1.91;86.43;99756.19;1729864;82;21489;-72
2022/02/01 12:06:55;;;;;;;39.45;18.12;;;;;;;1.93;86.37;99752.97;1730454;81;21027;-72
2022/02/01 12:09:24;;;;;;;27.93;13.55;;;;;;;1.96;86.34;99747.44;1728488;81;21008;-72
2022/02/01 12:11:55;;;;;;;30.17;13.25;;;;;;;1.98;86.32;99738.92;1760012;81;21525;-72
2022/02/01 12:14:21;;;;;;;31.12;12.40;;;;;;;2.00;86.28;99743.11;1705637;83;21031;-72
2022/02/01 12:16:50;;;;;;;27.32;9.75;;;;;;;2.02;86.24;99725.88;1702665;83;21022;-72
2022/02/01 12:19:36;;;;;;;34.27;13.65;;;;;;;2.03;86.21;99731.48;1709088;83;21022;-72
2022/02/01 12:22:10;;;;;;;30.95;13.72;;;;;;;2.06;86.21;99720.70;1693679;84;21045;-72
2022/02/01 12:24:36;;;;;;;20.52;7.65;;;;;;;2.07;86.16;99711.86;1715790;83;22050;-72
2022/02/01 12:27:02;;;;;;;28.40;8.80;;;;;;;2.06;86.14;99710.66;1722785;82;21550;-72
2022/02/01 12:29:28;;;;;;;17.05;7.50;;;;;;;2.07;86.13;99706.59;1701422;82;21038;-72
2022/02/01 12:31:54;;;;;;;24.12;8.28;;;;;;;2.08;86.10;99702.98;1694545;83;21065;-72
2022/02/01 12:34:20;;;;;;;17.95;8.65;;;;;;;2.08;86.07;99702.98;1702276;83;20987;-72
2022/02/01 12:36:50;;;;;;;23.07;8.18;;;;;;;2.08;86.06;99700.34;1709302;83;21121;-71
2022/02/01 12:39:32;;;;;;;23.73;8.83;;;;;;;2.07;86.08;99693.45;1706254;83;21020;-71
2022/02/01 12:42:03;;;;;;;20.00;9.15;;;;;;;2.05;86.03;99692.73;1721251;83;21079;-72
2022/02/01 12:47:04;;;;;;;26.85;13.43;;;;;;;2.15;86.02;99681.76;1701153;83;21080;-72
2022/02/01 12:49:49;;;;;;;18.03;8.43;;;;;;;2.19;86.02;99677.90;1677219;84;21493;-72
2022/02/01 12:52:29;;;;;;;18.20;9.83;;;;;;;2.22;85.98;99663.16;1697739;83;21293;-72
2022/02/01 12:55:06;;;;;;;21.20;7.33;;;;;;;2.28;85.99;99658.70;1720945;83;21124;-72
2022/02/01 12:57:34;;;;;;;22.05;6.40;;;;;;;2.30;85.98;99658.06;1720748;83;21037;-72
2022/02/01 13:00:05;;;;;;;18.73;6.12;;;;;;;2.34;85.95;99655.52;1720816;82;21055;-72
2022/02/01 13:02:33;;;;;;;11.88;5.12;;;;;;;2.37;85.92;99646.03;1725646;82;21194;-72